sensor_id;sensor_type;location;lat;lon;timestamp;P1;durP1;ratioP1;P2;durP2;ratioP2
62123;SDS011;48110;47.532;19.078;2022-09-02T00:01:59;2.50;;;1.00;;
62123;SDS011;48110;47.532;19.078;2022-09-02T00:05:03;2.90;;;1.00;;
62123;SDS011;48110;47.532;19.078;2022-09-02T00:08:06;1.80;;;0.95;;
62123;SDS011;48110;47.532;19.078;2022-09-02T00:11:12;3.45;;;0.90;;
62123;SDS011;48110;47.532;19.078;2022-09-02T00:14:18;1.98;;;0.90;;
62123;SDS011;48110;47.532;19.078;2022-09-02T00:17:27;2.55;;;1.05;;
62123;SDS011;48110;47.532;19.078;2022-09-02T00:20:30;1.42;;;0.80;;
62123;SDS011;48110;47.532;19.078;2022-09-02T00:23:33;4.85;;;1.25;;
62123;SDS011;48110;47.532;19.078;2022-09-02T00:26:36;2.25;;;1.10;;
62123;SDS011;48110;47.532;19.078;2022-09-02T00:29:39;3.50;;;0.90;;
62123;SDS011;48110;47.532;19.078;2022-09-02T00:32:42;6.15;;;1.17;;
62123;SDS011;48110;47.532;19.078;2022-09-02T00:35:45;2.55;;;0.82;;
62123;SDS011;48110;47.532;19.078;2022-09-02T00:38:48;1.65;;;0.90;;
62123;SDS011;48110;47.532;19.078;2022-09-02T00:41:51;1.65;;;0.80;;
62123;SDS011;48110;47.532;19.078;2022-09-02T00:44:55;2.40;;;1.00;;
62123;SDS011;48110;47.532;19.078;2022-09-02T00:47:58;2.10;;;0.70;;
62123;SDS011;48110;47.532;19.078;2022-09-02T00:51:01;1.67;;;0.80;;
62123;SDS011;48110;47.532;19.078;2022-09-02T00:54:08;1.62;;;0.90;;
62123;SDS011;48110;47.532;19.078;2022-09-02T00:57:13;2.17;;;0.93;;
62123;SDS011;48110;47.532;19.078;2022-09-02T01:00:25;3.40;;;1.00;;
62123;SDS011;48110;47.532;19.078;2022-09-02T01:03:36;1.27;;;0.70;;
62123;SDS011;48110;47.532;19.078;2022-09-02T01:06:40;3.78;;;0.88;;
62123;SDS011;48110;47.532;19.078;2022-09-02T01:09:43;3.83;;;1.00;;
62123;SDS011;48110;47.532;19.078;2022-09-02T01:12:46;1.45;;;0.70;;
62123;SDS011;48110;47.532;19.078;2022-09-02T01:15:54;1.85;;;0.80;;
62123;SDS011;48110;47.532;19.078;2022-09-02T01:19:00;1.45;;;0.80;;
62123;SDS011;48110;47.532;19.078;2022-09-02T01:22:20;1.08;;;0.60;;
62123;SDS011;48110;47.532;19.078;2022-09-02T01:25:27;2.45;;;0.70;;
62123;SDS011;48110;47.532;19.078;2022-09-02T01:28:32;1.45;;;0.70;;
62123;SDS011;48110;47.532;19.078;2022-09-02T01:31:36;1.67;;;0.80;;
62123;SDS011;48110;47.532;19.078;2022-09-02T01:34:39;3.35;;;0.80;;
62123;SDS011;48110;47.532;19.078;2022-09-02T01:37:43;1.65;;;0.65;;
62123;SDS011;48110;47.532;19.078;2022-09-02T01:40:57;1.42;;;0.68;;
62123;SDS011;48110;47.532;19.078;2022-09-02T01:44:00;1.27;;;0.70;;
62123;SDS011;48110;47.532;19.078;2022-09-02T01:47:02;1.90;;;0.90;;
62123;SDS011;48110;47.532;19.078;2022-09-02T01:50:07;1.67;;;0.70;;
62123;SDS011;48110;47.532;19.078;2022-09-02T01:53:10;1.25;;;0.65;;
62123;SDS011;48110;47.532;19.078;2022-09-02T01:56:14;1.55;;;0.62;;
62123;SDS011;48110;47.532;19.078;2022-09-02T01:59:17;1.90;;;0.77;;
62123;SDS011;48110;47.532;19.078;2022-09-02T02:02:22;1.10;;;0.90;;
62123;SDS011;48110;47.532;19.078;2022-09-02T02:05:26;3.65;;;0.95;;
62123;SDS011;48110;47.532;19.078;2022-09-02T02:08:30;1.30;;;0.80;;
62123;SDS011;48110;47.532;19.078;2022-09-02T02:11:33;1.77;;;0.60;;
62123;SDS011;48110;47.532;19.078;2022-09-02T02:14:36;1.23;;;0.70;;
62123;SDS011;48110;47.532;19.078;2022-09-02T02:17:39;1.25;;;0.70;;
62123;SDS011;48110;47.532;19.078;2022-09-02T02:20:42;1.62;;;0.75;;
62123;SDS011;48110;47.532;19.078;2022-09-02T02:23:46;2.20;;;0.95;;
62123;SDS011;48110;47.532;19.078;2022-09-02T02:26:49;2.75;;;0.88;;
62123;SDS011;48110;47.532;19.078;2022-09-02T02:29:53;1.20;;;0.60;;
62123;SDS011;48110;47.532;19.078;2022-09-02T02:32:56;2.03;;;0.75;;
62123;SDS011;48110;47.532;19.078;2022-09-02T02:35:59;1.65;;;0.73;;
62123;SDS011;48110;47.532;19.078;2022-09-02T02:39:03;1.35;;;0.88;;
62123;SDS011;48110;47.532;19.078;2022-09-02T02:42:07;1.20;;;0.70;;
62123;SDS011;48110;47.532;19.078;2022-09-02T02:45:10;1.30;;;0.82;;
62123;SDS011;48110;47.532;19.078;2022-09-02T02:48:17;0.77;;;0.57;;
62123;SDS011;48110;47.532;19.078;2022-09-02T02:51:19;1.90;;;0.70;;
62123;SDS011;48110;47.532;19.078;2022-09-02T02:54:23;2.35;;;0.70;;
62123;SDS011;48110;47.532;19.078;2022-09-02T02:57:37;0.88;;;0.60;;
62123;SDS011;48110;47.532;19.078;2022-09-02T03:00:41;1.00;;;0.50;;
62123;SDS011;48110;47.532;19.078;2022-09-02T03:03:47;2.67;;;0.80;;
62123;SDS011;48110;47.532;19.078;2022-09-02T03:06:50;1.80;;;0.70;;
62123;SDS011;48110;47.532;19.078;2022-09-02T03:09:53;2.03;;;0.68;;
62123;SDS011;48110;47.532;19.078;2022-09-02T03:13:00;1.52;;;0.77;;
62123;SDS011;48110;47.532;19.078;2022-09-02T03:16:04;1.65;;;0.77;;
62123;SDS011;48110;47.532;19.078;2022-09-02T03:19:08;0.93;;;0.50;;
62123;SDS011;48110;47.532;19.078;2022-09-02T03:22:10;1.45;;;0.60;;
62123;SDS011;48110;47.532;19.078;2022-09-02T03:25:15;3.67;;;0.80;;
62123;SDS011;48110;47.532;19.078;2022-09-02T03:28:21;0.88;;;0.62;;
62123;SDS011;48110;47.532;19.078;2022-09-02T03:31:24;1.83;;;0.90;;
62123;SDS011;48110;47.532;19.078;2022-09-02T03:34:29;2.05;;;0.90;;
62123;SDS011;48110;47.532;19.078;2022-09-02T03:37:34;1.33;;;0.80;;
62123;SDS011;48110;47.532;19.078;2022-09-02T03:40:37;1.58;;;0.77;;
62123;SDS011;48110;47.532;19.078;2022-09-02T03:43:41;1.77;;;0.70;;
62123;SDS011;48110;47.532;19.078;2022-09-02T03:46:44;2.85;;;0.62;;
62123;SDS011;48110;47.532;19.078;2022-09-02T03:49:48;2.22;;;0.88;;
62123;SDS011;48110;47.532;19.078;2022-09-02T03:52:50;1.20;;;0.75;;
62123;SDS011;48110;47.532;19.078;2022-09-02T03:55:54;2.58;;;0.80;;
62123;SDS011;48110;47.532;19.078;2022-09-02T03:58:58;4.78;;;0.80;;
62123;SDS011;48110;47.532;19.078;2022-09-02T04:02:02;2.15;;;0.85;;
62123;SDS011;48110;47.532;19.078;2022-09-02T04:05:05;2.35;;;0.73;;
62123;SDS011;48110;47.532;19.078;2022-09-02T04:08:17;3.05;;;0.70;;
62123;SDS011;48110;47.532;19.078;2022-09-02T04:11:21;1.80;;;0.70;;
62123;SDS011;48110;47.532;19.078;2022-09-02T04:14:25;3.25;;;0.70;;
62123;SDS011;48110;47.532;19.078;2022-09-02T04:17:29;1.62;;;0.80;;
62123;SDS011;48110;47.532;19.078;2022-09-02T04:20:32;1.02;;;0.70;;
62123;SDS011;48110;47.532;19.078;2022-09-02T04:23:35;1.55;;;0.80;;
62123;SDS011;48110;47.532;19.078;2022-09-02T04:26:37;1.65;;;0.73;;
62123;SDS011;48110;47.532;19.078;2022-09-02T04:29:47;3.47;;;0.70;;
62123;SDS011;48110;47.532;19.078;2022-09-02T04:32:50;2.03;;;0.98;;
62123;SDS011;48110;47.532;19.078;2022-09-02T04:35:54;8.25;;;1.00;;
62123;SDS011;48110;47.532;19.078;2022-09-02T04:38:57;2.03;;;0.70;;
62123;SDS011;48110;47.532;19.078;2022-09-02T04:42:02;1.77;;;0.80;;
62123;SDS011;48110;47.532;19.078;2022-09-02T04:45:05;1.92;;;0.77;;
62123;SDS011;48110;47.532;19.078;2022-09-02T04:48:09;3.25;;;0.82;;
62123;SDS011;48110;47.532;19.078;2022-09-02T04:51:14;1.75;;;0.88;;
62123;SDS011;48110;47.532;19.078;2022-09-02T04:54:19;5.20;;;0.80;;
62123;SDS011;48110;47.532;19.078;2022-09-02T04:57:22;1.45;;;0.80;;
62123;SDS011;48110;47.532;19.078;2022-09-02T05:00:25;4.78;;;0.85;;
62123;SDS011;48110;47.532;19.078;2022-09-02T05:03:28;2.65;;;1.00;;
62123;SDS011;48110;47.532;19.078;2022-09-02T05:06:32;3.42;;;0.80;;
62123;SDS011;48110;47.532;19.078;2022-09-02T05:09:35;1.70;;;1.10;;
62123;SDS011;48110;47.532;19.078;2022-09-02T05:12:39;2.55;;;0.80;;
62123;SDS011;48110;47.532;19.078;2022-09-02T05:15:43;3.10;;;1.08;;
62123;SDS011;48110;47.532;19.078;2022-09-02T05:18:46;1.40;;;0.60;;
62123;SDS011;48110;47.532;19.078;2022-09-02T05:21:51;5.40;;;0.80;;
62123;SDS011;48110;47.532;19.078;2022-09-02T05:25:00;1.25;;;0.70;;
62123;SDS011;48110;47.532;19.078;2022-09-02T05:28:04;2.45;;;0.90;;
62123;SDS011;48110;47.532;19.078;2022-09-02T05:31:13;4.68;;;0.60;;
62123;SDS011;48110;47.532;19.078;2022-09-02T05:34:17;2.83;;;0.88;;
62123;SDS011;48110;47.532;19.078;2022-09-02T05:37:21;2.80;;;0.80;;
62123;SDS011;48110;47.532;19.078;2022-09-02T05:40:25;2.15;;;0.90;;
62123;SDS011;48110;47.532;19.078;2022-09-02T05:43:30;5.43;;;0.88;;
62123;SDS011;48110;47.532;19.078;2022-09-02T05:46:33;2.58;;;0.95;;
62123;SDS011;48110;47.532;19.078;2022-09-02T05:49:37;2.45;;;0.90;;
62123;SDS011;48110;47.532;19.078;2022-09-02T05:52:41;2.95;;;0.70;;
62123;SDS011;48110;47.532;19.078;2022-09-02T05:55:44;1.40;;;0.73;;
62123;SDS011;48110;47.532;19.078;2022-09-02T05:58:47;4.07;;;0.80;;
62123;SDS011;48110;47.532;19.078;2022-09-02T06:01:52;2.72;;;0.90;;
62123;SDS011;48110;47.532;19.078;2022-09-02T06:04:56;1.70;;;0.80;;
62123;SDS011;48110;47.532;19.078;2022-09-02T06:07:59;2.80;;;0.80;;
62123;SDS011;48110;47.532;19.078;2022-09-02T06:11:06;4.12;;;0.90;;
62123;SDS011;48110;47.532;19.078;2022-09-02T06:14:10;1.10;;;0.68;;
62123;SDS011;48110;47.532;19.078;2022-09-02T06:17:15;1.65;;;0.62;;
62123;SDS011;48110;47.532;19.078;2022-09-02T06:20:19;1.55;;;0.80;;
62123;SDS011;48110;47.532;19.078;2022-09-02T06:23:22;1.80;;;0.60;;
62123;SDS011;48110;47.532;19.078;2022-09-02T06:26:26;4.18;;;0.88;;
62123;SDS011;48110;47.532;19.078;2022-09-02T06:29:29;1.80;;;0.90;;
62123;SDS011;48110;47.532;19.078;2022-09-02T06:32:32;1.35;;;0.60;;
62123;SDS011;48110;47.532;19.078;2022-09-02T06:35:37;3.33;;;0.80;;
62123;SDS011;48110;47.532;19.078;2022-09-02T06:38:45;1.30;;;0.70;;
62123;SDS011;48110;47.532;19.078;2022-09-02T06:41:53;1.48;;;0.65;;
62123;SDS011;48110;47.532;19.078;2022-09-02T06:44:59;4.47;;;1.08;;
62123;SDS011;48110;47.532;19.078;2022-09-02T06:48:03;5.80;;;0.80;;
62123;SDS011;48110;47.532;19.078;2022-09-02T06:51:19;3.62;;;0.82;;
62123;SDS011;48110;47.532;19.078;2022-09-02T06:54:32;2.85;;;0.95;;
62123;SDS011;48110;47.532;19.078;2022-09-02T06:57:37;3.00;;;1.20;;
62123;SDS011;48110;47.532;19.078;2022-09-02T07:00:43;2.90;;;0.90;;
62123;SDS011;48110;47.532;19.078;2022-09-02T07:03:46;5.70;;;0.93;;
62123;SDS011;48110;47.532;19.078;2022-09-02T07:07:08;2.30;;;0.80;;
62123;SDS011;48110;47.532;19.078;2022-09-02T07:10:12;2.80;;;1.87;;
62123;SDS011;48110;47.532;19.078;2022-09-02T07:13:17;4.93;;;0.70;;
62123;SDS011;48110;47.532;19.078;2022-09-02T07:16:21;5.12;;;1.00;;
62123;SDS011;48110;47.532;19.078;2022-09-02T07:19:29;2.80;;;0.70;;
62123;SDS011;48110;47.532;19.078;2022-09-02T07:22:33;1.83;;;0.80;;
62123;SDS011;48110;47.532;19.078;2022-09-02T07:25:38;4.47;;;0.75;;
62123;SDS011;48110;47.532;19.078;2022-09-02T07:28:42;2.90;;;0.90;;
62123;SDS011;48110;47.532;19.078;2022-09-02T07:31:46;2.10;;;0.70;;
62123;SDS011;48110;47.532;19.078;2022-09-02T07:34:50;1.42;;;0.95;;
62123;SDS011;48110;47.532;19.078;2022-09-02T07:37:53;3.60;;;1.23;;
62123;SDS011;48110;47.532;19.078;2022-09-02T07:40:56;3.12;;;0.85;;
62123;SDS011;48110;47.532;19.078;2022-09-02T07:44:00;2.92;;;0.82;;
62123;SDS011;48110;47.532;19.078;2022-09-02T07:47:06;1.87;;;0.80;;
62123;SDS011;48110;47.532;19.078;2022-09-02T07:50:10;1.20;;;0.70;;
62123;SDS011;48110;47.532;19.078;2022-09-02T07:53:23;3.22;;;0.90;;
62123;SDS011;48110;47.532;19.078;2022-09-02T07:56:28;1.55;;;1.00;;
62123;SDS011;48110;47.532;19.078;2022-09-02T07:59:30;6.50;;;0.93;;
62123;SDS011;48110;47.532;19.078;2022-09-02T08:02:34;7.40;;;0.90;;
62123;SDS011;48110;47.532;19.078;2022-09-02T08:05:37;2.97;;;0.95;;
62123;SDS011;48110;47.532;19.078;2022-09-02T08:08:41;3.78;;;1.12;;
62123;SDS011;48110;47.532;19.078;2022-09-02T08:11:45;5.05;;;0.93;;
62123;SDS011;48110;47.532;19.078;2022-09-02T08:14:49;4.35;;;1.30;;
62123;SDS011;48110;47.532;19.078;2022-09-02T08:17:52;2.08;;;0.80;;
62123;SDS011;48110;47.532;19.078;2022-09-02T08:20:55;2.12;;;0.65;;
62123;SDS011;48110;47.532;19.078;2022-09-02T08:23:57;3.58;;;0.88;;
62123;SDS011;48110;47.532;19.078;2022-09-02T08:27:01;5.25;;;1.00;;
62123;SDS011;48110;47.532;19.078;2022-09-02T08:30:04;2.83;;;0.80;;
62123;SDS011;48110;47.532;19.078;2022-09-02T08:33:11;1.87;;;0.90;;
62123;SDS011;48110;47.532;19.078;2022-09-02T08:36:14;3.22;;;0.90;;
62123;SDS011;48110;47.532;19.078;2022-09-02T08:39:16;1.85;;;0.70;;
62123;SDS011;48110;47.532;19.078;2022-09-02T08:42:21;2.20;;;0.93;;
62123;SDS011;48110;47.532;19.078;2022-09-02T08:48:36;2.83;;;1.20;;
62123;SDS011;48110;47.532;19.078;2022-09-02T08:51:49;4.97;;;0.90;;
62123;SDS011;48110;47.532;19.078;2022-09-02T08:55:02;2.58;;;0.70;;
62123;SDS011;48110;47.532;19.078;2022-09-02T08:58:05;1.87;;;0.80;;
62123;SDS011;48110;47.532;19.078;2022-09-02T09:01:16;1.73;;;1.10;;
62123;SDS011;48110;47.532;19.078;2022-09-02T09:08:07;3.17;;;0.80;;
62123;SDS011;48110;47.532;19.078;2022-09-02T09:11:28;3.78;;;1.00;;
62123;SDS011;48110;47.532;19.078;2022-09-02T09:18:00;1.85;;;0.90;;
62123;SDS011;48110;47.532;19.078;2022-09-02T09:21:06;1.77;;;0.82;;
62123;SDS011;48110;47.532;19.078;2022-09-02T09:24:17;1.73;;;0.80;;
62123;SDS011;48110;47.532;19.078;2022-09-02T09:27:27;3.92;;;1.00;;
62123;SDS011;48110;47.532;19.078;2022-09-02T09:30:29;4.87;;;1.10;;
62123;SDS011;48110;47.532;19.078;2022-09-02T09:33:32;1.42;;;1.00;;
62123;SDS011;48110;47.532;19.078;2022-09-02T09:39:41;4.85;;;1.35;;
62123;SDS011;48110;47.532;19.078;2022-09-02T09:42:43;1.58;;;1.02;;
62123;SDS011;48110;47.532;19.078;2022-09-02T09:45:51;1.70;;;0.90;;
62123;SDS011;48110;47.532;19.078;2022-09-02T09:48:54;5.12;;;1.10;;
62123;SDS011;48110;47.532;19.078;2022-09-02T09:51:57;4.07;;;1.00;;
62123;SDS011;48110;47.532;19.078;2022-09-02T09:55:12;2.10;;;1.05;;
62123;SDS011;48110;47.532;19.078;2022-09-02T10:01:42;3.70;;;0.90;;
62123;SDS011;48110;47.532;19.078;2022-09-02T10:04:53;4.60;;;1.25;;
62123;SDS011;48110;47.532;19.078;2022-09-02T10:11:20;1.93;;;1.00;;
62123;SDS011;48110;47.532;19.078;2022-09-02T10:14:26;2.03;;;1.05;;
62123;SDS011;48110;47.532;19.078;2022-09-02T10:17:47;2.42;;;1.20;;
62123;SDS011;48110;47.532;19.078;2022-09-02T10:21:50;5.25;;;1.05;;
62123;SDS011;48110;47.532;19.078;2022-09-02T10:25:16;2.47;;;1.10;;
62123;SDS011;48110;47.532;19.078;2022-09-02T10:35:24;1.92;;;0.95;;
62123;SDS011;48110;47.532;19.078;2022-09-02T10:38:45;2.08;;;1.00;;
62123;SDS011;48110;47.532;19.078;2022-09-02T10:41:49;6.97;;;1.23;;
62123;SDS011;48110;47.532;19.078;2022-09-02T10:58:23;6.57;;;1.20;;
62123;SDS011;48110;47.532;19.078;2022-09-02T11:02:04;3.05;;;0.90;;
62123;SDS011;48110;47.532;19.078;2022-09-02T11:05:27;1.95;;;1.15;;
62123;SDS011;48110;47.532;19.078;2022-09-02T11:08:41;2.83;;;1.05;;
62123;SDS011;48110;47.532;19.078;2022-09-02T11:11:56;4.75;;;1.12;;
62123;SDS011;48110;47.532;19.078;2022-09-02T11:15:21;4.15;;;1.20;;
62123;SDS011;48110;47.532;19.078;2022-09-02T11:18:36;3.25;;;1.25;;
62123;SDS011;48110;47.532;19.078;2022-09-02T11:21:51;3.40;;;1.00;;
62123;SDS011;48110;47.532;19.078;2022-09-02T11:25:19;2.80;;;1.10;;
62123;SDS011;48110;47.532;19.078;2022-09-02T11:31:39;4.30;;;1.58;;
62123;SDS011;48110;47.532;19.078;2022-09-02T11:34:46;2.75;;;1.20;;
62123;SDS011;48110;47.532;19.078;2022-09-02T11:37:51;3.10;;;1.17;;
62123;SDS011;48110;47.532;19.078;2022-09-02T11:54:35;3.78;;;1.05;;
62123;SDS011;48110;47.532;19.078;2022-09-02T11:57:42;3.30;;;1.40;;
62123;SDS011;48110;47.532;19.078;2022-09-02T12:03:58;3.58;;;1.15;;
62123;SDS011;48110;47.532;19.078;2022-09-02T12:07:46;1.85;;;1.10;;
62123;SDS011;48110;47.532;19.078;2022-09-02T12:13:53;2.92;;;1.10;;
62123;SDS011;48110;47.532;19.078;2022-09-02T12:20:09;3.90;;;1.40;;
62123;SDS011;48110;47.532;19.078;2022-09-02T12:29:55;4.10;;;1.20;;
62123;SDS011;48110;47.532;19.078;2022-09-02T12:33:00;5.93;;;1.30;;
62123;SDS011;48110;47.532;19.078;2022-09-02T12:36:07;2.83;;;1.17;;
62123;SDS011;48110;47.532;19.078;2022-09-02T12:42:25;2.83;;;1.10;;
62123;SDS011;48110;47.532;19.078;2022-09-02T12:45:38;2.62;;;1.08;;
62123;SDS011;48110;47.532;19.078;2022-09-02T12:48:47;6.57;;;1.55;;
62123;SDS011;48110;47.532;19.078;2022-09-02T12:52:02;1.85;;;1.00;;
62123;SDS011;48110;47.532;19.078;2022-09-02T12:58:12;2.28;;;1.42;;
62123;SDS011;48110;47.532;19.078;2022-09-02T13:08:35;3.70;;;1.30;;
62123;SDS011;48110;47.532;19.078;2022-09-02T13:19:05;6.37;;;4.93;;
62123;SDS011;48110;47.532;19.078;2022-09-02T13:32:48;1.58;;;1.08;;
62123;SDS011;48110;47.532;19.078;2022-09-02T13:35:58;4.05;;;1.20;;
62123;SDS011;48110;47.532;19.078;2022-09-02T13:39:17;2.67;;;1.30;;
62123;SDS011;48110;47.532;19.078;2022-09-02T13:42:22;3.58;;;1.10;;
62123;SDS011;48110;47.532;19.078;2022-09-02T13:45:36;5.75;;;1.40;;
62123;SDS011;48110;47.532;19.078;2022-09-02T13:48:39;4.25;;;1.50;;
62123;SDS011;48110;47.532;19.078;2022-09-02T13:51:42;2.97;;;1.20;;
62123;SDS011;48110;47.532;19.078;2022-09-02T13:54:51;5.25;;;1.15;;
62123;SDS011;48110;47.532;19.078;2022-09-02T13:58:02;2.97;;;1.12;;
62123;SDS011;48110;47.532;19.078;2022-09-02T14:04:30;3.97;;;1.35;;
62123;SDS011;48110;47.532;19.078;2022-09-02T14:07:36;2.95;;;1.50;;
62123;SDS011;48110;47.532;19.078;2022-09-02T14:10:42;2.30;;;1.30;;
62123;SDS011;48110;47.532;19.078;2022-09-02T14:13:47;1.80;;;1.27;;
62123;SDS011;48110;47.532;19.078;2022-09-02T14:16:52;4.62;;;1.48;;
62123;SDS011;48110;47.532;19.078;2022-09-02T14:20:24;3.60;;;1.90;;
62123;SDS011;48110;47.532;19.078;2022-09-02T14:23:27;2.35;;;1.20;;
62123;SDS011;48110;47.532;19.078;2022-09-02T14:26:36;3.10;;;1.30;;
62123;SDS011;48110;47.532;19.078;2022-09-02T14:29:43;5.57;;;1.40;;
62123;SDS011;48110;47.532;19.078;2022-09-02T14:32:47;3.30;;;1.37;;
62123;SDS011;48110;47.532;19.078;2022-09-02T14:35:57;3.25;;;1.42;;
62123;SDS011;48110;47.532;19.078;2022-09-02T14:39:22;4.07;;;1.23;;
62123;SDS011;48110;47.532;19.078;2022-09-02T14:42:25;3.80;;;1.58;;
62123;SDS011;48110;47.532;19.078;2022-09-02T14:45:31;2.85;;;1.77;;
62123;SDS011;48110;47.532;19.078;2022-09-02T14:48:35;2.65;;;1.37;;
62123;SDS011;48110;47.532;19.078;2022-09-02T14:51:43;3.25;;;1.52;;
62123;SDS011;48110;47.532;19.078;2022-09-02T14:54:51;9.20;;;1.62;;
62123;SDS011;48110;47.532;19.078;2022-09-02T14:58:03;4.22;;;1.52;;
62123;SDS011;48110;47.532;19.078;2022-09-02T15:01:06;2.90;;;1.10;;
62123;SDS011;48110;47.532;19.078;2022-09-02T15:04:10;6.50;;;1.35;;
62123;SDS011;48110;47.532;19.078;2022-09-02T15:07:16;5.90;;;1.50;;
62123;SDS011;48110;47.532;19.078;2022-09-02T15:10:18;3.60;;;1.35;;
62123;SDS011;48110;47.532;19.078;2022-09-02T15:16:33;2.90;;;1.60;;
62123;SDS011;48110;47.532;19.078;2022-09-02T15:19:39;2.55;;;1.33;;
62123;SDS011;48110;47.532;19.078;2022-09-02T15:22:41;2.50;;;1.40;;
62123;SDS011;48110;47.532;19.078;2022-09-02T15:25:45;6.00;;;1.60;;
62123;SDS011;48110;47.532;19.078;2022-09-02T15:28:47;4.97;;;1.60;;
62123;SDS011;48110;47.532;19.078;2022-09-02T15:31:51;6.00;;;2.35;;
62123;SDS011;48110;47.532;19.078;2022-09-02T15:34:54;8.02;;;2.30;;
62123;SDS011;48110;47.532;19.078;2022-09-02T15:37:57;6.25;;;2.10;;
62123;SDS011;48110;47.532;19.078;2022-09-02T15:41:10;5.12;;;2.25;;
62123;SDS011;48110;47.532;19.078;2022-09-02T15:44:14;4.53;;;2.05;;
62123;SDS011;48110;47.532;19.078;2022-09-02T15:47:17;3.97;;;2.00;;
62123;SDS011;48110;47.532;19.078;2022-09-02T15:50:20;6.25;;;2.30;;
62123;SDS011;48110;47.532;19.078;2022-09-02T15:53:23;8.30;;;2.10;;
62123;SDS011;48110;47.532;19.078;2022-09-02T15:56:26;7.50;;;2.20;;
62123;SDS011;48110;47.532;19.078;2022-09-02T15:59:31;7.95;;;2.08;;
62123;SDS011;48110;47.532;19.078;2022-09-02T16:02:34;4.62;;;1.90;;
62123;SDS011;48110;47.532;19.078;2022-09-02T16:05:37;4.55;;;2.20;;
62123;SDS011;48110;47.532;19.078;2022-09-02T16:08:39;5.00;;;2.42;;
62123;SDS011;48110;47.532;19.078;2022-09-02T16:11:46;5.82;;;2.17;;
62123;SDS011;48110;47.532;19.078;2022-09-02T16:14:53;6.18;;;2.60;;
62123;SDS011;48110;47.532;19.078;2022-09-02T16:17:56;5.75;;;2.33;;
62123;SDS011;48110;47.532;19.078;2022-09-02T16:20:59;6.35;;;2.15;;
62123;SDS011;48110;47.532;19.078;2022-09-02T16:24:02;6.70;;;1.80;;
62123;SDS011;48110;47.532;19.078;2022-09-02T16:27:04;4.87;;;2.60;;
62123;SDS011;48110;47.532;19.078;2022-09-02T16:30:07;3.62;;;1.90;;
62123;SDS011;48110;47.532;19.078;2022-09-02T16:33:11;6.72;;;2.30;;
62123;SDS011;48110;47.532;19.078;2022-09-02T16:36:14;6.25;;;2.20;;
62123;SDS011;48110;47.532;19.078;2022-09-02T16:39:17;5.93;;;2.87;;
62123;SDS011;48110;47.532;19.078;2022-09-02T16:42:23;4.95;;;2.03;;
62123;SDS011;48110;47.532;19.078;2022-09-02T16:45:27;6.43;;;2.00;;
62123;SDS011;48110;47.532;19.078;2022-09-02T16:48:31;5.28;;;2.15;;
62123;SDS011;48110;47.532;19.078;2022-09-02T16:51:36;4.03;;;2.03;;
62123;SDS011;48110;47.532;19.078;2022-09-02T16:54:42;7.32;;;2.60;;
62123;SDS011;48110;47.532;19.078;2022-09-02T16:57:45;4.80;;;2.17;;
62123;SDS011;48110;47.532;19.078;2022-09-02T17:00:48;8.57;;;2.10;;
62123;SDS011;48110;47.532;19.078;2022-09-02T17:03:50;4.65;;;1.95;;
62123;SDS011;48110;47.532;19.078;2022-09-02T17:06:53;6.47;;;2.10;;
62123;SDS011;48110;47.532;19.078;2022-09-02T17:09:56;4.78;;;2.05;;
62123;SDS011;48110;47.532;19.078;2022-09-02T17:12:59;4.30;;;2.35;;
62123;SDS011;48110;47.532;19.078;2022-09-02T17:16:02;3.92;;;2.00;;
62123;SDS011;48110;47.532;19.078;2022-09-02T17:19:05;5.22;;;2.08;;
62123;SDS011;48110;47.532;19.078;2022-09-02T17:22:08;6.45;;;2.28;;
62123;SDS011;48110;47.532;19.078;2022-09-02T17:25:11;6.12;;;2.00;;
62123;SDS011;48110;47.532;19.078;2022-09-02T17:28:14;3.72;;;2.10;;
62123;SDS011;48110;47.532;19.078;2022-09-02T17:34:40;7.82;;;2.47;;
62123;SDS011;48110;47.532;19.078;2022-09-02T17:37:43;7.75;;;2.05;;
62123;SDS011;48110;47.532;19.078;2022-09-02T17:40:46;5.85;;;2.33;;
62123;SDS011;48110;47.532;19.078;2022-09-02T17:44:07;6.43;;;2.28;;
62123;SDS011;48110;47.532;19.078;2022-09-02T17:47:15;3.40;;;1.90;;
62123;SDS011;48110;47.532;19.078;2022-09-02T17:50:21;5.65;;;1.87;;
62123;SDS011;48110;47.532;19.078;2022-09-02T17:53:24;3.42;;;1.92;;
62123;SDS011;48110;47.532;19.078;2022-09-02T18:06:34;6.78;;;2.20;;
62123;SDS011;48110;47.532;19.078;2022-09-02T18:09:41;3.85;;;1.70;;
62123;SDS011;48110;47.532;19.078;2022-09-02T18:12:44;9.38;;;2.10;;
62123;SDS011;48110;47.532;19.078;2022-09-02T18:19:12;5.70;;;2.12;;
62123;SDS011;48110;47.532;19.078;2022-09-02T18:23:27;6.97;;;2.30;;
62123;SDS011;48110;47.532;19.078;2022-09-02T18:29:44;5.60;;;2.40;;
62123;SDS011;48110;47.532;19.078;2022-09-02T18:46:35;8.80;;;2.47;;
62123;SDS011;48110;47.532;19.078;2022-09-02T18:49:46;7.95;;;2.20;;
62123;SDS011;48110;47.532;19.078;2022-09-02T18:52:52;6.82;;;2.35;;
62123;SDS011;48110;47.532;19.078;2022-09-02T18:56:06;7.37;;;2.10;;
62123;SDS011;48110;47.532;19.078;2022-09-02T18:59:12;6.40;;;2.40;;
62123;SDS011;48110;47.532;19.078;2022-09-02T19:05:33;5.57;;;2.33;;
62123;SDS011;48110;47.532;19.078;2022-09-02T19:08:38;3.78;;;2.00;;
62123;SDS011;48110;47.532;19.078;2022-09-02T19:11:42;4.03;;;2.30;;
62123;SDS011;48110;47.532;19.078;2022-09-02T19:14:45;5.57;;;2.45;;
62123;SDS011;48110;47.532;19.078;2022-09-02T19:17:48;5.37;;;2.33;;
62123;SDS011;48110;47.532;19.078;2022-09-02T19:20:52;4.90;;;2.60;;
62123;SDS011;48110;47.532;19.078;2022-09-02T19:23:55;3.40;;;2.25;;
62123;SDS011;48110;47.532;19.078;2022-09-02T19:27:00;3.45;;;2.35;;
62123;SDS011;48110;47.532;19.078;2022-09-02T19:30:11;4.93;;;2.30;;
62123;SDS011;48110;47.532;19.078;2022-09-02T19:33:23;4.37;;;2.17;;
62123;SDS011;48110;47.532;19.078;2022-09-02T19:36:26;6.20;;;2.37;;
62123;SDS011;48110;47.532;19.078;2022-09-02T19:39:33;5.87;;;2.37;;
62123;SDS011;48110;47.532;19.078;2022-09-02T19:42:37;4.62;;;2.20;;
62123;SDS011;48110;47.532;19.078;2022-09-02T19:45:39;6.32;;;2.28;;
62123;SDS011;48110;47.532;19.078;2022-09-02T19:48:42;5.03;;;2.65;;
62123;SDS011;48110;47.532;19.078;2022-09-02T19:51:47;5.22;;;2.55;;
62123;SDS011;48110;47.532;19.078;2022-09-02T19:54:50;8.27;;;2.33;;
62123;SDS011;48110;47.532;19.078;2022-09-02T19:57:52;6.65;;;2.30;;
62123;SDS011;48110;47.532;19.078;2022-09-02T20:00:55;6.25;;;2.62;;
62123;SDS011;48110;47.532;19.078;2022-09-02T20:03:58;5.80;;;2.60;;
62123;SDS011;48110;47.532;19.078;2022-09-02T20:07:01;4.65;;;2.60;;
62123;SDS011;48110;47.532;19.078;2022-09-02T20:10:04;6.28;;;2.30;;
62123;SDS011;48110;47.532;19.078;2022-09-02T20:13:08;4.78;;;2.33;;
62123;SDS011;48110;47.532;19.078;2022-09-02T20:16:16;5.80;;;2.30;;
62123;SDS011;48110;47.532;19.078;2022-09-02T20:19:22;5.03;;;2.37;;
62123;SDS011;48110;47.532;19.078;2022-09-02T20:22:28;5.45;;;2.50;;
62123;SDS011;48110;47.532;19.078;2022-09-02T20:36:15;9.10;;;2.55;;
62123;SDS011;48110;47.532;19.078;2022-09-02T20:45:56;5.43;;;3.08;;
62123;SDS011;48110;47.532;19.078;2022-09-02T21:02:25;6.05;;;3.00;;
62123;SDS011;48110;47.532;19.078;2022-09-02T21:05:36;8.55;;;3.05;;
62123;SDS011;48110;47.532;19.078;2022-09-02T21:12:27;8.70;;;3.35;;
62123;SDS011;48110;47.532;19.078;2022-09-02T21:15:48;8.00;;;3.25;;
62123;SDS011;48110;47.532;19.078;2022-09-02T21:25:26;7.78;;;3.15;;
62123;SDS011;48110;47.532;19.078;2022-09-02T21:35:13;7.43;;;3.25;;
62123;SDS011;48110;47.532;19.078;2022-09-02T21:41:35;7.65;;;3.40;;
62123;SDS011;48110;47.532;19.078;2022-09-02T21:45:04;6.25;;;3.15;;